createdAt,value
2016-08-09T00:00:35.331Z,1013.31
2016-08-09T00:01:35.357Z,1013.36
2016-08-09T00:02:35.385Z,1013.31
2016-08-09T00:03:35.410Z,1013.33
2016-08-09T00:05:35.461Z,1013.35
2016-08-09T00:06:35.488Z,1013.36
2016-08-09T00:07:35.517Z,1013.39
2016-08-09T00:08:35.540Z,1013.42
2016-08-09T00:09:35.568Z,1013.47
2016-08-09T00:10:35.592Z,1013.38
2016-08-09T00:11:35.619Z,1013.39
2016-08-09T00:12:35.649Z,1013.33
2016-08-09T00:13:35.675Z,1013.32
2016-08-09T00:14:35.700Z,1013.33
2016-08-09T00:15:35.727Z,1013.29
2016-08-09T00:16:35.752Z,1013.29
2016-08-09T00:17:35.779Z,1013.31
2016-08-09T00:18:35.806Z,1013.31
2016-08-09T00:20:35.859Z,1013.35
2016-08-09T00:21:35.884Z,1013.28
2016-08-09T00:22:35.912Z,1013.33
2016-08-09T00:23:35.939Z,1013.35
2016-08-09T00:24:35.964Z,1013.3
2016-08-09T00:25:35.991Z,1013.35
2016-08-09T00:26:36.019Z,1013.35
2016-08-09T00:27:36.042Z,1013.31
2016-08-09T00:28:36.067Z,1013.36
2016-08-09T00:29:36.094Z,1013.4
2016-08-09T00:30:36.120Z,1013.34
2016-08-09T00:31:36.148Z,1013.35
2016-08-09T00:32:36.176Z,1013.39
2016-08-09T00:33:36.203Z,1013.35
2016-08-09T00:34:36.228Z,1013.39
2016-08-09T00:35:36.267Z,1013.35
2016-08-09T00:36:36.278Z,1013.37
2016-08-09T00:37:36.306Z,1013.32
2016-08-09T00:38:36.334Z,1013.37
2016-08-09T00:39:36.357Z,1013.34
2016-08-09T00:40:36.386Z,1013.32
2016-08-09T00:41:36.410Z,1013.32
2016-08-09T00:42:36.439Z,1013.35
2016-08-09T00:43:36.466Z,1013.33
2016-08-09T00:44:36.488Z,1013.38
2016-08-09T00:45:36.518Z,1013.42
2016-08-09T00:46:36.546Z,1013.39
2016-08-09T00:47:36.569Z,1013.4
2016-08-09T00:48:36.597Z,1013.41
2016-08-09T00:49:36.623Z,1013.42
2016-08-09T00:50:36.648Z,1013.47
2016-08-09T00:52:36.701Z,1013.46
2016-08-09T00:53:36.725Z,1013.48
2016-08-09T00:54:36.751Z,1013.48
2016-08-09T00:55:36.779Z,1013.51
2016-08-09T00:56:36.807Z,1013.45
2016-08-09T00:57:36.832Z,1013.48
2016-08-09T00:58:36.858Z,1013.49
2016-08-09T00:59:36.885Z,1013.47
2016-08-09T01:00:36.910Z,1013.5
2016-08-09T01:01:36.934Z,1013.54
2016-08-09T01:02:36.962Z,1013.55
2016-08-09T01:03:36.991Z,1013.5
2016-08-09T01:04:37.013Z,1013.52
2016-08-09T01:05:37.042Z,1013.51
2016-08-09T01:06:37.067Z,1013.52
2016-08-09T01:08:37.120Z,1013.51
2016-08-09T01:09:37.142Z,1013.56
2016-08-09T01:10:37.169Z,1013.53
2016-08-09T01:11:37.196Z,1013.51
2016-08-09T01:12:37.221Z,1013.52
2016-08-09T01:13:37.248Z,1013.51
2016-08-09T01:14:37.275Z,1013.52
2016-08-09T01:15:37.303Z,1013.54
2016-08-09T01:16:37.326Z,1013.52
2016-08-09T01:17:37.353Z,1013.55
2016-08-09T01:18:37.379Z,1013.52
2016-08-09T01:19:37.407Z,1013.55
2016-08-09T01:20:37.434Z,1013.51
2016-08-09T01:21:37.457Z,1013.49
2016-08-09T01:22:37.485Z,1013.51
2016-08-09T01:24:37.537Z,1013.48
2016-08-09T01:25:37.561Z,1013.51
2016-08-09T01:26:37.587Z,1013.5
2016-08-09T01:27:37.613Z,1013.49
2016-08-09T01:28:37.642Z,1013.46
2016-08-09T01:29:37.666Z,1013.46
2016-08-09T01:30:37.694Z,1013.44
2016-08-09T01:31:37.717Z,1013.44
2016-08-09T01:32:37.746Z,1013.45
2016-08-09T01:33:37.773Z,1013.48
2016-08-09T01:34:37.796Z,1013.51
2016-08-09T01:35:37.821Z,1013.52
2016-08-09T01:36:37.848Z,1013.51
2016-08-09T01:37:37.874Z,1013.52
2016-08-09T01:38:37.902Z,1013.57
2016-08-09T01:40:37.954Z,1013.5
2016-08-09T01:41:37.987Z,1013.51
2016-08-09T01:42:38.005Z,1013.53
2016-08-09T01:43:38.032Z,1013.49
2016-08-09T01:44:38.058Z,1013.55
2016-08-09T01:45:38.083Z,1013.53
2016-08-09T01:46:38.111Z,1013.54
2016-08-09T01:47:38.135Z,1013.55
2016-08-09T01:48:38.161Z,1013.54
2016-08-09T01:49:38.185Z,1013.56
2016-08-09T01:50:38.211Z,1013.54
2016-08-09T01:51:38.239Z,1013.52
2016-08-09T01:52:38.266Z,1013.52
2016-08-09T01:53:38.289Z,1013.52
2016-08-09T01:55:38.345Z,1013.54
2016-08-09T01:56:38.367Z,1013.54
2016-08-09T01:57:38.396Z,1013.61
2016-08-09T01:58:38.422Z,1013.59
2016-08-09T01:59:38.448Z,1013.6
2016-08-09T02:00:38.478Z,1013.63
2016-08-09T02:01:38.497Z,1013.61
2016-08-09T02:02:38.524Z,1013.63
2016-08-09T02:03:38.553Z,1013.61
2016-08-09T02:04:38.577Z,1013.62
2016-08-09T02:05:38.603Z,1013.62
2016-08-09T02:06:38.627Z,1013.62
2016-08-09T02:07:38.652Z,1013.6
2016-08-09T02:08:38.678Z,1013.6
2016-08-09T02:09:38.706Z,1013.61
2016-08-09T02:10:38.730Z,1013.56
2016-08-09T02:11:38.759Z,1013.6
2016-08-09T02:12:38.783Z,1013.61
2016-08-09T02:13:38.810Z,1013.6
2016-08-09T02:14:38.835Z,1013.55
2016-08-09T02:15:38.859Z,1013.57
2016-08-09T02:16:38.888Z,1013.54
2016-08-09T02:17:38.913Z,1013.55
2016-08-09T02:18:38.937Z,1013.58
2016-08-09T02:19:38.963Z,1013.56
2016-08-09T02:20:38.990Z,1013.52
2016-08-09T02:21:39.018Z,1013.5
2016-08-09T02:22:39.041Z,1013.5
2016-08-09T02:23:39.068Z,1013.57
2016-08-09T02:24:39.095Z,1013.58
2016-08-09T02:25:39.119Z,1013.53
2016-08-09T02:27:39.172Z,1013.58
2016-08-09T02:28:39.195Z,1013.55
2016-08-09T02:29:39.223Z,1013.53
2016-08-09T02:30:39.248Z,1013.55
2016-08-09T02:31:39.273Z,1013.53
2016-08-09T02:32:39.300Z,1013.57
2016-08-09T02:33:39.326Z,1013.53
2016-08-09T02:34:39.351Z,1013.52
2016-08-09T02:35:39.378Z,1013.49
2016-08-09T02:36:39.402Z,1013.53
2016-08-09T02:37:39.427Z,1013.51
2016-08-09T02:38:39.453Z,1013.53
2016-08-09T02:39:39.481Z,1013.52
2016-08-09T02:40:39.503Z,1013.49
2016-08-09T02:41:39.530Z,1013.52
2016-08-09T02:43:39.583Z,1013.49
2016-08-09T02:44:39.606Z,1013.46
2016-08-09T02:45:39.632Z,1013.47
2016-08-09T02:46:39.660Z,1013.49
2016-08-09T02:47:39.685Z,1013.46
2016-08-09T02:48:39.709Z,1013.5
2016-08-09T02:49:39.734Z,1013.47
2016-08-09T02:50:39.764Z,1013.5
2016-08-09T02:51:39.792Z,1013.47
2016-08-09T02:52:39.813Z,1013.51
2016-08-09T02:53:39.838Z,1013.48
2016-08-09T02:54:39.864Z,1013.48
2016-08-09T02:55:39.891Z,1013.48
2016-08-09T02:56:39.914Z,1013.48
2016-08-09T02:57:39.940Z,1013.42
2016-08-09T02:59:39.991Z,1013.45
2016-08-09T03:00:40.020Z,1013.45
2016-08-09T03:01:40.046Z,1013.46
2016-08-09T03:02:40.068Z,1013.43
2016-08-09T03:03:40.094Z,1013.43
2016-08-09T03:04:40.121Z,1013.47
2016-08-09T03:05:40.147Z,1013.5
2016-08-09T03:06:40.170Z,1013.48
2016-08-09T03:07:40.197Z,1013.49
2016-08-09T03:08:40.222Z,1013.51
2016-08-09T03:09:40.248Z,1013.49
2016-08-09T03:10:40.274Z,1013.53
2016-08-09T03:11:40.302Z,1013.55
2016-08-09T03:12:40.325Z,1013.53
2016-08-09T03:13:40.351Z,1013.52
2016-08-09T03:15:40.403Z,1013.48
2016-08-09T03:16:40.427Z,1013.51
2016-08-09T03:17:40.453Z,1013.51
2016-08-09T03:18:40.479Z,1013.49
2016-08-09T03:19:40.508Z,1013.51
2016-08-09T03:20:40.532Z,1013.51
2016-08-09T03:21:40.556Z,1013.51
2016-08-09T03:22:40.579Z,1013.52
2016-08-09T03:23:40.606Z,1013.53
2016-08-09T03:24:40.632Z,1013.54
2016-08-09T03:25:40.657Z,1013.56
2016-08-09T03:26:40.685Z,1013.6
2016-08-09T03:27:40.709Z,1013.58
2016-08-09T03:28:40.734Z,1013.6
2016-08-09T03:30:40.789Z,1013.56
2016-08-09T03:31:40.811Z,1013.59
2016-08-09T03:32:40.837Z,1013.59
2016-08-09T03:33:40.871Z,1013.58
2016-08-09T03:34:40.888Z,1013.56
2016-08-09T03:35:40.914Z,1013.59
2016-08-09T03:36:40.939Z,1013.55
2016-08-09T03:37:40.965Z,1013.58
2016-08-09T03:38:40.991Z,1013.58
2016-08-09T03:39:41.015Z,1013.55
2016-08-09T03:40:41.040Z,1013.5
2016-08-09T03:41:41.066Z,1013.48
2016-08-09T03:42:41.091Z,1013.51
2016-08-09T03:43:41.117Z,1013.51
2016-08-09T03:44:41.145Z,1013.46
2016-08-09T03:45:41.168Z,1013.56
2016-08-09T03:46:41.194Z,1013.54
2016-08-09T03:48:41.247Z,1013.59
2016-08-09T03:49:41.270Z,1013.62
2016-08-09T03:50:41.298Z,1013.61
2016-08-09T03:51:41.324Z,1013.62
2016-08-09T03:52:41.350Z,1013.62
2016-08-09T03:53:41.384Z,1013.6
2016-08-09T03:54:41.405Z,1013.63
2016-08-09T03:55:41.426Z,1013.63
2016-08-09T03:56:41.449Z,1013.68
2016-08-09T03:57:41.477Z,1013.7
2016-08-09T03:58:41.502Z,1013.71
2016-08-09T03:59:41.528Z,1013.71
2016-08-09T04:00:41.555Z,1013.71
2016-08-09T04:02:41.602Z,1013.67
2016-08-09T04:03:41.630Z,1013.67
2016-08-09T04:04:41.657Z,1013.69
2016-08-09T04:05:41.679Z,1013.67
2016-08-09T04:06:41.705Z,1013.64
2016-08-09T04:07:41.733Z,1013.67
2016-08-09T04:08:41.756Z,1013.64
2016-08-09T04:09:41.783Z,1013.6
2016-08-09T04:10:41.807Z,1013.67
2016-08-09T04:11:41.831Z,1013.67
2016-08-09T04:12:41.860Z,1013.64
2016-08-09T04:13:41.882Z,1013.65
2016-08-09T04:14:41.909Z,1013.64
2016-08-09T04:15:41.933Z,1013.64
2016-08-09T04:16:41.962Z,1013.65
2016-08-09T04:18:42.011Z,1013.68
2016-08-09T04:19:42.037Z,1013.65
2016-08-09T04:20:42.067Z,1013.67
2016-08-09T04:21:42.089Z,1013.62
2016-08-09T04:22:42.112Z,1013.64
2016-08-09T04:23:42.139Z,1013.62
2016-08-09T04:24:42.164Z,1013.6
2016-08-09T04:25:42.191Z,1013.62
2016-08-09T04:26:42.214Z,1013.62
2016-08-09T04:27:42.242Z,1013.61
2016-08-09T04:28:42.266Z,1013.66
2016-08-09T04:29:42.291Z,1013.68
2016-08-09T04:30:42.316Z,1013.71
2016-08-09T04:31:42.343Z,1013.66
2016-08-09T04:34:42.421Z,1013.76
2016-08-09T04:35:42.447Z,1013.71
2016-08-09T04:36:42.470Z,1013.69
2016-08-09T04:37:42.497Z,1013.65
2016-08-09T04:38:42.523Z,1013.68
2016-08-09T04:39:42.547Z,1013.66
2016-08-09T04:40:42.575Z,1013.63
2016-08-09T04:41:42.600Z,1013.62
2016-08-09T04:42:42.626Z,1013.68
2016-08-09T04:43:42.653Z,1013.66
2016-08-09T04:44:42.675Z,1013.68
2016-08-09T04:45:42.700Z,1013.66
2016-08-09T04:46:42.729Z,1013.69
2016-08-09T04:48:42.776Z,1013.67
2016-08-09T04:50:42.831Z,1013.68
2016-08-09T04:51:42.936Z,1013.69
2016-08-09T04:52:42.883Z,1013.7
2016-08-09T04:53:42.907Z,1013.71
2016-08-09T04:54:42.934Z,1013.73
2016-08-09T04:55:42.957Z,1013.71
2016-08-09T04:56:42.985Z,1013.73
2016-08-09T04:57:43.010Z,1013.75
2016-08-09T04:58:43.037Z,1013.68
2016-08-09T04:59:43.066Z,1013.73
2016-08-09T05:00:43.090Z,1013.68
2016-08-09T05:01:43.113Z,1013.7
2016-08-09T05:02:43.139Z,1013.71
2016-08-09T05:03:43.165Z,1013.74
2016-08-09T05:05:43.218Z,1013.72
2016-08-09T05:06:43.242Z,1013.74
2016-08-09T05:07:43.271Z,1013.84
2016-08-09T05:08:43.296Z,1013.92
2016-08-09T05:09:43.321Z,1013.9
2016-08-09T05:10:43.347Z,1013.87
2016-08-09T05:11:43.375Z,1013.85
2016-08-09T05:12:43.399Z,1013.85
2016-08-09T05:13:43.425Z,1013.87
2016-08-09T05:14:43.452Z,1013.87
2016-08-09T05:15:43.480Z,1013.89
2016-08-09T05:16:43.505Z,1013.9
2016-08-09T05:17:43.531Z,1013.9
2016-08-09T05:18:43.558Z,1013.86
2016-08-09T05:19:43.585Z,1013.86
2016-08-09T05:20:43.611Z,1013.87
2016-08-09T05:21:43.635Z,1013.89
2016-08-09T05:22:43.661Z,1013.91
2016-08-09T05:23:43.689Z,1013.9
2016-08-09T05:24:43.713Z,1013.94
2016-08-09T05:25:43.740Z,1013.94
2016-08-09T05:26:43.768Z,1013.93
2016-08-09T05:27:43.844Z,1013.95
2016-08-09T05:28:43.817Z,1013.9
2016-08-09T05:29:43.845Z,1013.9
2016-08-09T05:30:43.870Z,1013.89
2016-08-09T05:31:43.898Z,1013.95
2016-08-09T05:32:43.922Z,1013.89
2016-08-09T05:33:43.951Z,1013.94
2016-08-09T05:34:43.975Z,1013.96
2016-08-09T05:35:44.004Z,1013.91
2016-08-09T05:37:44.053Z,1013.96
2016-08-09T05:38:44.082Z,1013.92
2016-08-09T05:39:44.104Z,1013.94
2016-08-09T05:40:44.131Z,1013.95
2016-08-09T05:41:44.162Z,1013.95
2016-08-09T05:42:44.187Z,1013.91
2016-08-09T05:43:44.211Z,1013.94
2016-08-09T05:44:44.236Z,1013.89
2016-08-09T05:45:44.261Z,1013.93
2016-08-09T05:46:44.288Z,1013.89
2016-08-09T05:47:44.315Z,1013.91
2016-08-09T05:48:44.338Z,1013.87
2016-08-09T05:49:44.367Z,1013.91
2016-08-09T05:50:44.392Z,1013.9
2016-08-09T05:51:44.420Z,1013.89
2016-08-09T05:53:44.469Z,1013.89
2016-08-09T05:54:44.494Z,1013.93
2016-08-09T05:55:44.523Z,1013.91
2016-08-09T05:56:44.549Z,1013.94
2016-08-09T05:57:44.573Z,1013.94
2016-08-09T05:58:44.599Z,1013.98
2016-08-09T05:59:44.625Z,1014.07
2016-08-09T06:00:44.651Z,1014.06
2016-08-09T06:01:44.679Z,1014.09
2016-08-09T06:02:44.705Z,1014.04
2016-08-09T06:03:44.732Z,1014
2016-08-09T06:04:44.756Z,1013.98
2016-08-09T06:05:44.784Z,1014.01
2016-08-09T06:06:44.810Z,1014.01
2016-08-09T06:07:44.835Z,1014.03
2016-08-09T06:09:44.888Z,1014.05
2016-08-09T06:10:44.917Z,1014.06
2016-08-09T06:11:44.942Z,1014.13
2016-08-09T06:12:44.968Z,1014.12
2016-08-09T06:13:44.995Z,1014.13
2016-08-09T06:14:45.024Z,1014.1
2016-08-09T06:15:45.052Z,1014.05
2016-08-09T06:16:45.076Z,1014.08
2016-08-09T06:17:45.104Z,1014.13
2016-08-09T06:18:45.132Z,1014.13
2016-08-09T06:19:45.158Z,1014.18
2016-08-09T06:20:45.183Z,1014.12
2016-08-09T06:21:45.211Z,1014.11
2016-08-09T06:22:45.237Z,1014.12
2016-08-09T06:23:45.263Z,1014.11
2016-08-09T06:25:45.318Z,1014.13
2016-08-09T06:26:45.345Z,1014.21
2016-08-09T06:27:45.374Z,1014.2
2016-08-09T06:28:45.401Z,1014.29
2016-08-09T06:29:45.426Z,1014.33
2016-08-09T06:30:45.453Z,1014.37
2016-08-09T06:31:45.478Z,1014.43
2016-08-09T06:32:45.506Z,1014.41
2016-08-09T06:33:45.534Z,1014.44
2016-08-09T06:34:45.561Z,1014.4
2016-08-09T06:35:45.588Z,1014.46
2016-08-09T06:36:45.616Z,1014.51
2016-08-09T06:37:45.645Z,1014.49
2016-08-09T06:38:45.673Z,1014.53
2016-08-09T06:40:45.729Z,1014.8
2016-08-09T06:41:45.754Z,1014.84
2016-08-09T06:42:45.783Z,1014.88
2016-08-09T06:43:45.810Z,1015.13
2016-08-09T06:44:45.837Z,1015.39
2016-08-09T06:45:45.866Z,1015.44
2016-08-09T06:46:45.897Z,1015.43
2016-08-09T06:47:45.921Z,1015.41
2016-08-09T06:48:45.952Z,1015.54
2016-08-09T06:52:46.070Z,1015.48
2016-08-09T06:53:46.101Z,1015.54
2016-08-09T06:54:46.130Z,1015.47
2016-08-09T06:55:46.162Z,1015.42
2016-08-09T06:56:46.194Z,1015.01
2016-08-09T06:57:46.223Z,1015.22
2016-08-09T06:58:46.255Z,1015.3
2016-08-09T06:59:46.287Z,1015
2016-08-09T07:00:46.318Z,1014.87
2016-08-09T07:01:46.348Z,1014.81
2016-08-09T07:02:46.384Z,1014.65
2016-08-09T07:03:46.410Z,1014.72
2016-08-09T07:04:46.442Z,1014.68
2016-08-09T07:05:46.474Z,1014.69
2016-08-09T07:06:46.506Z,1014.8
2016-08-09T07:07:46.546Z,1014.58
2016-08-09T07:08:46.571Z,1014.58
2016-08-09T07:09:46.600Z,1014.6
2016-08-09T07:10:46.629Z,1014.67
2016-08-09T07:13:46.732Z,1014.63
2016-08-09T07:14:46.753Z,1014.67
2016-08-09T07:15:46.785Z,1014.66
2016-08-09T07:16:46.817Z,1014.67
2016-08-09T07:17:46.844Z,1014.68
2016-08-09T07:18:46.874Z,1014.7
2016-08-09T07:19:46.906Z,1014.6
2016-08-09T07:20:46.936Z,1014.64
2016-08-09T07:21:46.967Z,1014.79
2016-08-09T07:22:46.995Z,1014.67
2016-08-09T07:23:47.025Z,1014.62
2016-08-09T07:24:47.057Z,1014.58
2016-08-09T07:25:47.085Z,1014.6
2016-08-09T07:26:47.115Z,1014.55
2016-08-09T07:28:47.174Z,1014.6
2016-08-09T07:29:47.202Z,1014.63
2016-08-09T07:30:47.233Z,1014.6
2016-08-09T07:31:47.264Z,1014.61
2016-08-09T07:32:47.292Z,1014.58
2016-08-09T07:33:47.323Z,1014.59
2016-08-09T07:34:47.348Z,1014.61
2016-08-09T07:35:47.378Z,1014.62
2016-08-09T07:36:47.407Z,1014.61
2016-08-09T07:37:47.439Z,1014.58
2016-08-09T07:38:47.467Z,1014.62
2016-08-09T07:39:47.495Z,1014.64
2016-08-09T07:40:47.523Z,1014.65
2016-08-09T07:41:47.554Z,1014.62
2016-08-09T07:42:47.582Z,1014.64
2016-08-09T07:44:47.638Z,1014.91
2016-08-09T07:45:47.669Z,1014.86
2016-08-09T07:46:47.696Z,1014.72
2016-08-09T07:47:47.724Z,1014.76
2016-08-09T07:48:47.758Z,1014.75
2016-08-09T07:49:47.783Z,1014.8
2016-08-09T07:50:47.813Z,1015.1
2016-08-09T07:51:47.841Z,1015.05
2016-08-09T07:52:47.873Z,1015.04
2016-08-09T07:53:47.903Z,1015.06
2016-08-09T07:54:47.937Z,1015.04
2016-08-09T07:55:47.962Z,1014.94
2016-08-09T07:56:47.991Z,1014.93
2016-08-09T07:57:48.025Z,1014.91
2016-08-09T07:58:48.057Z,1014.89
2016-08-09T08:00:48.116Z,1014.86
2016-08-09T08:01:48.147Z,1014.84
2016-08-09T08:02:48.177Z,1014.84
2016-08-09T08:03:48.209Z,1014.85
2016-08-09T08:04:48.241Z,1014.81
2016-08-09T08:05:48.274Z,1014.78
2016-08-09T08:06:48.311Z,1014.75
2016-08-09T08:07:48.335Z,1014.76
2016-08-09T08:08:48.368Z,1014.76
2016-08-09T08:09:48.398Z,1014.72
2016-08-09T08:10:48.431Z,1014.72
2016-08-09T08:11:48.463Z,1014.73
2016-08-09T08:12:48.493Z,1014.66
2016-08-09T08:13:48.525Z,1014.65
2016-08-09T08:15:48.591Z,1014.6
2016-08-09T08:16:48.618Z,1014.55
2016-08-09T08:17:48.650Z,1014.52
2016-08-09T08:18:48.684Z,1014.56
2016-08-09T08:19:48.713Z,1014.56
2016-08-09T08:20:48.744Z,1014.53
2016-08-09T08:21:48.774Z,1014.49
2016-08-09T08:22:48.808Z,1014.44
2016-08-09T08:23:48.838Z,1014.41
2016-08-09T08:24:48.868Z,1014.38
2016-08-09T08:25:48.898Z,1014.33
2016-08-09T08:26:48.931Z,1014.28
2016-08-09T08:27:48.961Z,1014.28
2016-08-09T08:28:48.989Z,1014.22
2016-08-09T08:29:49.019Z,1014.2
2016-08-09T08:30:49.052Z,1014.21
2016-08-09T08:31:49.081Z,1014.18
2016-08-09T08:32:49.109Z,1014.15
2016-08-09T08:33:49.141Z,1014.12
2016-08-09T08:34:49.170Z,1014.12
2016-08-09T08:35:49.201Z,1014.14
2016-08-09T08:36:49.228Z,1014.12
2016-08-09T08:37:49.259Z,1014.15
2016-08-09T08:38:49.290Z,1014.13
2016-08-09T08:39:49.319Z,1014.12
2016-08-09T08:40:49.348Z,1014.11
2016-08-09T08:41:49.378Z,1014.15
2016-08-09T08:42:49.406Z,1014.16
2016-08-09T08:43:49.435Z,1014.16
2016-08-09T08:44:49.463Z,1014.19
2016-08-09T08:45:49.491Z,1014.2
2016-08-09T08:47:49.551Z,1014.23
2016-08-09T08:48:49.579Z,1014.26
2016-08-09T08:49:49.610Z,1014.3
2016-08-09T08:50:49.638Z,1014.29
2016-08-09T08:51:49.667Z,1014.3
2016-08-09T08:52:49.695Z,1014.31
2016-08-09T08:53:49.727Z,1014.3
2016-08-09T08:54:49.752Z,1014.31
2016-08-09T08:55:49.782Z,1014.32
2016-08-09T08:56:49.815Z,1014.34
2016-08-09T08:57:49.839Z,1014.34
2016-08-09T08:58:49.867Z,1014.39
2016-08-09T08:59:49.897Z,1014.4
2016-08-09T09:00:49.924Z,1014.45
2016-08-09T09:01:49.954Z,1014.53
2016-08-09T09:04:50.042Z,1014.57
2016-08-09T09:05:50.070Z,1014.61
2016-08-09T09:06:50.100Z,1014.57
2016-08-09T09:07:50.127Z,1014.53
2016-08-09T09:08:50.154Z,1014.54
2016-08-09T09:09:50.184Z,1014.53
2016-08-09T09:10:50.212Z,1014.57
2016-08-09T09:11:50.244Z,1014.6
2016-08-09T09:12:50.270Z,1014.58
2016-08-09T09:13:50.297Z,1014.53
2016-08-09T09:14:50.329Z,1014.47
2016-08-09T09:15:50.354Z,1014.56
2016-08-09T09:16:50.382Z,1014.6
2016-08-09T09:17:50.420Z,1014.57
2016-08-09T09:19:50.472Z,1014.58
2016-08-09T09:20:50.500Z,1014.59
2016-08-09T09:21:50.530Z,1014.56
2016-08-09T09:22:50.557Z,1014.58
2016-08-09T09:23:50.585Z,1014.57
2016-08-09T09:24:50.614Z,1014.58
2016-08-09T09:25:50.645Z,1014.6
2016-08-09T09:26:50.674Z,1014.66
2016-08-09T09:27:50.700Z,1014.61
2016-08-09T09:28:50.730Z,1014.61
2016-08-09T09:29:50.756Z,1014.6
2016-08-09T09:30:50.785Z,1014.59
2016-08-09T09:31:50.815Z,1014.62
2016-08-09T09:32:50.846Z,1014.64
2016-08-09T09:35:50.931Z,1014.62
2016-08-09T09:36:50.960Z,1014.57
2016-08-09T09:37:50.988Z,1014.62
2016-08-09T09:38:51.015Z,1014.58
2016-08-09T09:39:51.045Z,1014.6
2016-08-09T09:40:51.070Z,1014.54
2016-08-09T09:41:51.101Z,1014.53
2016-08-09T09:42:51.128Z,1014.55
2016-08-09T09:43:51.158Z,1014.52
2016-08-09T09:44:51.187Z,1014.51
2016-08-09T09:45:51.215Z,1014.5
2016-08-09T09:46:51.244Z,1014.49
2016-08-09T09:47:51.272Z,1014.5
2016-08-09T09:48:51.299Z,1014.52
2016-08-09T09:50:51.359Z,1014.52
2016-08-09T09:51:51.387Z,1014.46
2016-08-09T09:52:51.418Z,1014.47
2016-08-09T09:53:51.444Z,1014.48
2016-08-09T09:54:51.471Z,1014.49
2016-08-09T09:55:51.501Z,1014.47
2016-08-09T09:56:51.530Z,1014.43
2016-08-09T09:57:51.600Z,1014.39
2016-08-09T09:58:51.587Z,1014.43
2016-08-09T09:59:51.618Z,1014.45
2016-08-09T10:00:51.643Z,1014.47
2016-08-09T10:01:51.673Z,1014.43
2016-08-09T10:02:51.703Z,1014.48
2016-08-09T10:03:51.730Z,1014.41
2016-08-09T10:04:51.760Z,1014.39
2016-08-09T10:05:51.794Z,1014.41
2016-08-09T10:06:51.822Z,1014.41
2016-08-09T10:07:51.853Z,1014.42
2016-08-09T10:08:51.882Z,1014.36
2016-08-09T10:09:51.910Z,1014.3
2016-08-09T10:10:51.942Z,1014.31
2016-08-09T10:11:51.974Z,1014.29
2016-08-09T10:12:52.005Z,1014.26
2016-08-09T10:13:52.036Z,1014.29
2016-08-09T10:14:52.067Z,1014.28
2016-08-09T10:15:52.095Z,1014.24
2016-08-09T10:16:52.127Z,1014.28
2016-08-09T10:17:52.157Z,1014.27
2016-08-09T10:18:52.190Z,1014.27
2016-08-09T10:19:52.223Z,1014.27
2016-08-09T10:20:52.253Z,1014.25
2016-08-09T10:22:52.313Z,1014.22
2016-08-09T10:23:52.346Z,1014.19
2016-08-09T10:24:52.377Z,1014.16
2016-08-09T10:25:52.408Z,1014.26
2016-08-09T10:26:52.442Z,1014.23
2016-08-09T10:27:52.474Z,1014.19
2016-08-09T10:28:52.501Z,1014.15
2016-08-09T10:29:52.535Z,1014.16
2016-08-09T10:30:52.567Z,1014.16
2016-08-09T10:31:52.598Z,1014.18
2016-08-09T10:32:52.626Z,1014.17
2016-08-09T10:33:52.659Z,1014.2
2016-08-09T10:34:52.691Z,1014.19
2016-08-09T10:35:52.720Z,1014.17
2016-08-09T10:36:52.755Z,1014.18
2016-08-09T10:38:52.816Z,1014.21
2016-08-09T10:39:52.846Z,1014.3
2016-08-09T10:40:52.878Z,1014.25
2016-08-09T10:41:52.910Z,1014.2
2016-08-09T10:42:52.941Z,1014.19
2016-08-09T10:43:52.978Z,1014.2
2016-08-09T10:44:53.017Z,1014.21
2016-08-09T10:45:53.038Z,1014.17
2016-08-09T10:46:53.066Z,1014.17
2016-08-09T10:47:53.098Z,1014.15
2016-08-09T10:48:53.128Z,1014.16
2016-08-09T10:49:53.159Z,1014.14
2016-08-09T10:50:53.189Z,1014.12
2016-08-09T10:51:53.222Z,1014.11
2016-08-09T10:52:53.255Z,1014.11
2016-08-09T10:54:53.362Z,1014.05
2016-08-09T10:55:53.342Z,1014.05
2016-08-09T10:56:53.374Z,1014.03
2016-08-09T10:57:53.403Z,1014.02
2016-08-09T10:58:53.436Z,1013.96
2016-08-09T10:59:53.463Z,1014
2016-08-09T11:00:53.498Z,1013.98
2016-08-09T11:01:53.526Z,1013.94
2016-08-09T11:02:53.553Z,1013.94
2016-08-09T11:03:53.585Z,1013.92
2016-08-09T11:04:53.614Z,1013.95
2016-08-09T11:05:53.642Z,1013.97
2016-08-09T11:06:53.674Z,1013.87
2016-08-09T11:07:53.706Z,1013.85
2016-08-09T11:08:53.733Z,1013.89
2016-08-09T11:10:53.792Z,1013.89
2016-08-09T11:11:53.821Z,1013.94
2016-08-09T11:12:53.853Z,1013.89
2016-08-09T11:13:53.885Z,1014.01
2016-08-09T11:14:53.913Z,1013.99
2016-08-09T11:15:53.942Z,1013.95
2016-08-09T11:16:53.970Z,1013.92
2016-08-09T11:17:54.000Z,1013.88
2016-08-09T11:18:54.030Z,1013.88
2016-08-09T11:19:54.058Z,1013.87
2016-08-09T11:20:54.090Z,1013.85
2016-08-09T11:21:54.121Z,1013.86
2016-08-09T11:22:54.151Z,1013.89
2016-08-09T11:23:54.180Z,1013.84
2016-08-09T11:25:54.243Z,1013.81
2016-08-09T11:26:54.269Z,1013.81
2016-08-09T11:27:54.300Z,1013.81
2016-08-09T11:28:54.326Z,1013.81
2016-08-09T11:29:54.357Z,1013.74
2016-08-09T11:30:54.384Z,1013.81
2016-08-09T11:31:54.416Z,1013.8
2016-08-09T11:32:54.448Z,1013.75
2016-08-09T11:33:54.473Z,1013.8
2016-08-09T11:34:54.502Z,1013.78
2016-08-09T11:35:54.532Z,1013.8
2016-08-09T11:36:54.564Z,1013.78
2016-08-09T11:37:54.590Z,1013.76
2016-08-09T11:38:54.622Z,1013.75
2016-08-09T11:39:54.651Z,1013.78
2016-08-09T11:40:54.679Z,1013.8
2016-08-09T11:41:54.708Z,1013.73
2016-08-09T11:42:54.737Z,1013.75
2016-08-09T11:43:54.769Z,1013.71
2016-08-09T11:44:54.795Z,1013.76
2016-08-09T11:45:54.826Z,1013.75
2016-08-09T11:46:54.856Z,1013.73
2016-08-09T11:47:54.883Z,1013.72
2016-08-09T11:48:54.913Z,1013.72
2016-08-09T11:49:54.941Z,1013.73
2016-08-09T11:50:54.970Z,1013.75
2016-08-09T11:51:55.001Z,1013.66
2016-08-09T11:52:55.031Z,1013.68
2016-08-09T11:53:55.061Z,1013.63
2016-08-09T11:54:55.091Z,1013.66
2016-08-09T11:55:55.117Z,1013.71
2016-08-09T11:57:55.176Z,1013.79
2016-08-09T11:58:55.206Z,1013.71
2016-08-09T11:59:55.235Z,1013.67
2016-08-09T12:00:55.266Z,1013.71
2016-08-09T12:01:55.294Z,1013.73
2016-08-09T12:02:55.322Z,1013.79
2016-08-09T12:03:55.352Z,1013.73
2016-08-09T12:04:55.383Z,1013.71
2016-08-09T12:05:55.409Z,1013.75
2016-08-09T12:06:55.439Z,1013.77
2016-08-09T12:07:55.468Z,1013.72
2016-08-09T12:08:55.497Z,1013.75
2016-08-09T12:09:55.526Z,1013.74
2016-08-09T12:10:55.555Z,1013.77
2016-08-09T12:11:55.584Z,1013.76
2016-08-09T12:13:55.642Z,1013.82
2016-08-09T12:14:55.671Z,1013.77
2016-08-09T12:15:55.699Z,1013.77
2016-08-09T12:16:55.728Z,1013.76
2016-08-09T12:17:55.757Z,1013.78
2016-08-09T12:18:55.787Z,1013.77
2016-08-09T12:19:55.816Z,1013.74
2016-08-09T12:20:55.844Z,1013.78
2016-08-09T12:21:55.874Z,1013.81
2016-08-09T12:22:55.905Z,1013.83
2016-08-09T12:23:55.932Z,1013.83
2016-08-09T12:24:55.960Z,1013.8
2016-08-09T12:25:55.989Z,1013.77
2016-08-09T12:26:56.018Z,1013.81
2016-08-09T12:27:56.048Z,1013.87
2016-08-09T12:29:56.108Z,1013.82
2016-08-09T12:30:56.137Z,1013.86
2016-08-09T12:31:56.163Z,1013.85
2016-08-09T12:32:56.193Z,1013.76
2016-08-09T12:33:56.231Z,1013.64
2016-08-09T12:34:56.302Z,1013.76
2016-08-09T12:35:56.282Z,1013.75
2016-08-09T12:36:56.311Z,1013.73
2016-08-09T12:37:56.337Z,1013.79
2016-08-09T12:38:56.368Z,1013.78
2016-08-09T12:39:56.395Z,1013.71
2016-08-09T12:40:56.423Z,1013.77
2016-08-09T12:41:56.455Z,1013.73
2016-08-09T12:42:56.481Z,1013.72
2016-08-09T12:43:56.512Z,1013.69
2016-08-09T12:45:56.570Z,1013.68
2016-08-09T12:46:56.597Z,1013.67
2016-08-09T12:47:56.625Z,1013.6
2016-08-09T12:48:56.656Z,1013.7
2016-08-09T12:49:56.687Z,1013.6
2016-08-09T12:50:56.715Z,1013.59
2016-08-09T12:51:56.740Z,1013.54
2016-08-09T12:52:56.770Z,1013.6
2016-08-09T12:53:56.799Z,1013.6
2016-08-09T12:54:56.830Z,1013.51
2016-08-09T12:55:56.855Z,1013.47
2016-08-09T12:56:56.885Z,1013.54
2016-08-09T12:57:56.915Z,1013.39
2016-08-09T12:58:56.946Z,1013.6